Time;durP1;ratioP1;P1;durP2;ratioP2;P2;SDS_P1;SDS_P2;PMS_P1;PMS_P2;Temp;Humidity;BMP_temperature;BMP_pressure;BME280_temperature;BME280_humidity;BME280_pressure;Samples;Min_cycle;Max_cycle;Signal;HPM_P1;HPM_P2
2021/12/04 00:03:41;;;;;;;46.05;33.03;;;;;;;5.11;100.00;99981.28;10556366;28;20089;-74
2021/12/04 00:08:45;;;;;;;49.88;34.28;;;;;;;5.14;100.00;99972.88;10537759;28;20165;-74
2021/12/04 00:13:45;;;;;;;45.55;31.85;;;;;;;5.14;100.00;99956.78;10539329;28;20039;-75
2021/12/04 00:18:46;;;;;;;55.45;35.85;;;;;;;5.07;100.00;99937.91;10521121;28;20038;-74
2021/12/04 00:23:46;;;;;;;39.47;29.00;;;;;;;5.20;100.00;99944.44;10538563;28;20119;-75
2021/12/04 00:28:46;;;;;;;47.45;32.75;;;;;;;5.08;100.00;99934.19;10537733;28;20438;-74
2021/12/04 00:33:48;;;;;;;50.38;32.70;;;;;;;5.06;100.00;99943.44;10538373;28;20101;-74
2021/12/04 00:49:43;;;;;;;53.50;34.50;;;;;;;5.18;100.00;99950.00;10545839;28;20045;-74
2021/12/04 00:54:44;;;;;;;52.60;36.33;;;;;;;5.16;100.00;99951.22;10563328;28;20048;-74
2021/12/04 00:59:44;;;;;;;51.88;33.53;;;;;;;5.19;100.00;99935.56;10550147;28;20044;-74
2021/12/04 01:04:45;;;;;;;44.33;30.33;;;;;;;5.11;100.00;99938.34;10548720;28;20115;-74
2021/12/04 01:09:46;;;;;;;62.42;33.63;;;;;;;5.15;100.00;99933.44;10545941;28;20040;-75
2021/12/04 01:14:46;;;;;;;49.17;32.67;;;;;;;5.18;100.00;99916.97;10547176;28;20035;-74
2021/12/04 01:19:46;;;;;;;56.47;33.35;;;;;;;5.07;100.00;99913.75;10545974;28;20115;-74
2021/12/04 01:24:47;;;;;;;56.40;34.42;;;;;;;5.12;100.00;99903.28;10550147;28;20092;-74
2021/12/04 01:29:48;;;;;;;56.90;34.67;;;;;;;5.17;100.00;99888.44;10551483;28;20032;-74
2021/12/04 01:34:48;;;;;;;63.47;35.60;;;;;;;5.06;100.00;99895.13;10561663;28;20040;-74
2021/12/04 01:39:48;;;;;;;55.05;35.40;;;;;;;5.10;100.00;99896.41;10544805;28;20107;-74
2021/12/04 01:44:49;;;;;;;57.53;34.47;;;;;;;5.07;100.00;99899.47;10544686;28;20388;-74
2021/12/04 01:49:51;;;;;;;68.40;37.10;;;;;;;5.16;100.00;99897.53;10525640;28;20063;-75
2021/12/04 01:54:52;;;;;;;63.58;35.65;;;;;;;5.25;100.00;99897.25;10525816;28;20032;-74
2021/12/04 01:59:52;;;;;;;65.20;37.80;;;;;;;5.20;100.00;99891.63;10543298;28;20044;-74
2021/12/04 02:04:53;;;;;;;57.85;35.75;;;;;;;5.06;100.00;99882.53;10544461;28;20036;-74
2021/12/04 02:09:53;;;;;;;64.18;36.83;;;;;;;5.14;100.00;99889.69;10542525;28;20070;-74
2021/12/04 02:14:53;;;;;;;41.10;27.23;;;;;;;5.12;100.00;99873.75;10541738;28;20122;-74
2021/12/04 02:19:54;;;;;;;59.58;34.95;;;;;;;5.11;100.00;99888.19;10542437;28;20024;-74
2021/12/04 02:24:54;;;;;;;57.92;34.83;;;;;;;5.12;100.00;99887.16;10542448;28;20047;-74
2021/12/04 02:29:55;;;;;;;58.28;34.22;;;;;;;5.21;100.00;99884.41;10524291;28;20425;-74
2021/12/04 02:34:55;;;;;;;49.70;31.77;;;;;;;5.27;100.00;99878.28;10541503;28;20056;-75
2021/12/04 02:39:59;;;;;;;59.35;33.38;;;;;;;5.27;100.00;99879.09;10540617;28;20107;-75
2021/12/04 02:45:02;;;;;;;66.72;37.28;;;;;;;5.24;100.00;99873.28;10540474;28;20425;-74
2021/12/04 02:50:05;;;;;;;52.13;33.60;;;;;;;5.27;100.00;99873.75;10542139;28;20039;-74
2021/12/04 02:55:06;;;;;;;65.45;36.38;;;;;;;5.28;100.00;99867.34;10541914;28;20032;-74
2021/12/04 03:00:07;;;;;;;59.40;33.70;;;;;;;5.29;100.00;99871.69;10557656;28;20072;-74
2021/12/04 03:05:10;;;;;;;58.70;29.42;;;;;;;5.27;100.00;99884.47;10541543;28;20043;-74
2021/12/04 03:10:10;;;;;;;44.72;26.73;;;;;;;5.22;100.00;99865.41;10539058;28;20039;-74
2021/12/04 03:15:11;;;;;;;45.13;28.77;;;;;;;5.23;100.00;99867.09;10539942;28;20372;-74
2021/12/04 03:20:11;;;;;;;56.88;32.10;;;;;;;5.24;100.00;99851.81;10539751;28;20032;-74
2021/12/04 03:25:15;;;;;;;62.58;34.30;;;;;;;5.27;100.00;99844.22;10541655;28;20093;-74
2021/12/04 03:30:32;;;;;;;60.10;32.67;;;;;;;5.26;100.00;99842.53;10541046;28;20032;-74
2021/12/04 03:40:55;;;;;;;53.05;32.05;;;;;;;5.26;100.00;99826.41;10540061;28;20040;-74
2021/12/04 03:46:00;;;;;;;63.63;31.45;;;;;;;5.29;100.00;99819.84;10541162;28;20032;-74
2021/12/04 03:51:02;;;;;;;63.17;32.88;;;;;;;5.24;100.00;99819.59;10505626;28;20067;-74
2021/12/04 03:56:04;;;;;;;66.00;30.98;;;;;;;5.21;100.00;99811.94;10546879;28;20112;-74
2021/12/04 04:01:04;;;;;;;67.95;34.60;;;;;;;5.19;100.00;99811.28;10541443;28;20031;-74
2021/12/04 04:06:05;;;;;;;66.03;36.35;;;;;;;5.24;100.00;99815.06;10539442;28;20373;-74
2021/12/04 04:11:05;;;;;;;52.60;29.52;;;;;;;5.27;100.00;99803.94;10538878;28;20356;-74
2021/12/04 04:16:06;;;;;;;64.35;32.38;;;;;;;5.25;100.00;99802.47;10539288;28;20040;-74
2021/12/04 04:21:06;;;;;;;73.82;35.05;;;;;;;5.31;100.00;99797.16;10546814;28;20036;-74
2021/12/04 04:26:06;;;;;;;60.47;30.77;;;;;;;5.30;100.00;99792.84;10546820;28;20036;-74
2021/12/04 04:31:08;;;;;;;56.25;30.65;;;;;;;5.27;100.00;99797.75;10548382;28;20043;-74
2021/12/04 04:58:03;;;;;;;65.90;32.50;;;;;;;5.27;100.00;99763.69;10544957;28;20059;-74
2021/12/04 05:13:24;;;;;;;61.15;32.17;;;;;;;5.27;100.00;99761.00;10545585;28;20036;-74
2021/12/04 05:23:28;;;;;;;49.97;29.60;;;;;;;5.26;100.00;99743.22;10544424;28;20127;-74
2021/12/04 05:28:29;;;;;;;56.55;29.92;;;;;;;5.31;100.00;99740.81;10544474;28;20036;-74
2021/12/04 05:33:29;;;;;;;67.22;32.08;;;;;;;5.28;100.00;99743.88;10544287;28;20032;-74
2021/12/04 05:38:30;;;;;;;57.03;33.10;;;;;;;5.20;100.00;99748.53;10544566;28;20503;-74
2021/12/04 05:43:30;;;;;;;58.25;27.60;;;;;;;5.25;100.00;99736.19;10561307;28;20032;-74
2021/12/04 05:58:50;;;;;;;47.08;26.98;;;;;;;5.11;100.00;99723.69;10544849;28;20056;-74
2021/12/04 06:03:52;;;;;;;49.97;27.90;;;;;;;5.11;100.00;99729.06;10544206;28;20048;-74
2021/12/04 06:08:52;;;;;;;54.22;27.98;;;;;;;5.11;100.00;99726.38;10545182;28;20040;-74
2021/12/04 06:13:53;;;;;;;38.03;27.02;;;;;;;5.11;100.00;99723.69;10543393;28;20478;-74
2021/12/04 06:18:54;;;;;;;44.65;26.08;;;;;;;5.11;100.00;99721.81;10541765;28;20031;-73
2021/12/04 06:23:54;;;;;;;53.15;28.35;;;;;;;5.09;100.00;99731.09;10543395;28;20079;-74
2021/12/04 06:28:55;;;;;;;55.20;30.00;;;;;;;5.11;100.00;99724.50;10542090;28;20431;-74
2021/12/04 06:33:55;;;;;;;52.65;26.70;;;;;;;5.07;100.00;99719.69;10543810;28;20115;-74
2021/12/04 06:38:56;;;;;;;50.13;26.55;;;;;;;4.98;100.00;99731.56;10541351;28;20035;-74
2021/12/04 06:43:56;;;;;;;48.58;25.83;;;;;;;4.89;100.00;99737.06;10541208;28;20036;-74
2021/12/04 06:49:04;;;;;;;47.53;24.52;;;;;;;4.92;100.00;99733.19;10541374;28;20043;-74
2021/12/04 06:54:09;;;;;;;43.95;25.75;;;;;;;4.89;100.00;99717.47;10542386;28;20038;-74
2021/12/04 06:59:13;;;;;;;42.88;24.20;;;;;;;4.93;100.00;99715.22;10540120;28;20601;-74
2021/12/04 07:04:16;;;;;;;39.83;26.33;;;;;;;4.88;100.00;99713.94;10541677;28;20043;-74
2021/12/04 07:09:17;;;;;;;60.40;30.60;;;;;;;4.84;100.00;99701.91;10542122;28;20032;-74
2021/12/04 07:14:17;;;;;;;48.65;29.63;;;;;;;4.85;100.00;99705.44;10540977;28;20036;-74
2021/12/04 07:19:18;;;;;;;52.13;28.75;;;;;;;4.76;100.00;99703.91;10539132;28;20463;-74
2021/12/04 07:24:18;;;;;;;53.70;28.70;;;;;;;4.64;100.00;99695.50;10540135;28;20072;-74
2021/12/04 07:29:18;;;;;;;42.00;25.30;;;;;;;4.55;100.00;99675.19;10539197;28;20036;-74
2021/12/04 07:34:19;;;;;;;44.90;27.33;;;;;;;4.45;100.00;99682.72;10540882;28;20043;-74
2021/12/04 07:39:19;;;;;;;50.88;28.05;;;;;;;4.24;100.00;99662.03;10538289;28;20416;-74
2021/12/04 07:44:20;;;;;;;54.88;32.28;;;;;;;4.29;100.00;99660.44;10539566;28;20119;-74
2021/12/04 07:49:20;;;;;;;67.22;34.78;;;;;;;4.33;100.00;99651.00;10539864;28;20530;-74
2021/12/04 07:54:20;;;;;;;68.18;30.65;;;;;;;4.38;100.00;99650.47;10539255;28;20036;-73
2021/12/04 07:59:21;;;;;;;48.70;21.67;;;;;;;4.28;100.00;99645.41;10533857;28;20052;-74
2021/12/04 08:04:22;;;;;;;49.15;25.90;;;;;;;4.31;100.00;99653.06;10540122;28;20479;-74
2021/12/04 08:09:22;;;;;;;42.78;21.33;;;;;;;4.36;100.00;99637.22;10539515;28;20056;-73
2021/12/04 08:14:23;;;;;;;31.75;19.30;;;;;;;4.39;100.00;99658.31;10539419;28;20064;-74
2021/12/04 08:19:23;;;;;;;37.92;20.60;;;;;;;4.52;100.00;99671.03;10540374;28;20383;-74
2021/12/04 08:24:23;;;;;;;33.03;18.05;;;;;;;4.64;100.00;99674.06;10541136;28;20040;-79
2021/12/04 08:29:24;;;;;;;32.53;22.25;;;;;;;4.73;100.00;99670.25;10541917;28;20064;-75
2021/12/04 08:34:24;;;;;;;39.97;23.50;;;;;;;4.76;100.00;99663.69;10539795;28;20039;-75
2021/12/04 08:39:25;;;;;;;34.13;20.17;;;;;;;4.77;100.00;99660.78;10539127;28;20028;-75
2021/12/04 08:44:25;;;;;;;46.55;23.58;;;;;;;4.78;100.00;99656.25;10539576;28;20039;-74
2021/12/04 08:49:29;;;;;;;47.88;24.90;;;;;;;4.76;100.00;99639.53;10537585;28;20460;-74
2021/12/04 08:54:33;;;;;;;44.88;26.38;;;;;;;4.78;100.00;99624.06;10539315;28;20129;-74
2021/12/04 08:59:34;;;;;;;45.45;27.45;;;;;;;4.82;100.00;99628.06;10538230;28;20052;-74
2021/12/04 09:04:35;;;;;;;36.88;23.00;;;;;;;4.79;100.00;99620.38;10539080;28;20074;-74
2021/12/04 09:09:35;;;;;;;50.50;25.48;;;;;;;4.81;100.00;99626.38;10528086;28;20353;-74
2021/12/04 09:14:37;;;;;;;50.58;30.00;;;;;;;4.85;100.00;99619.59;10551869;28;20063;-74
2021/12/04 09:19:37;;;;;;;57.63;30.73;;;;;;;4.96;100.00;99635.19;10550372;28;20419;-74
2021/12/04 09:24:40;;;;;;;52.63;30.08;;;;;;;4.98;100.00;99629.63;10544301;28;20063;-74
2021/12/04 10:02:05;;;;;;;67.65;36.40;;;;;;;5.35;100.00;99570.25;10543349;28;20083;-74
2021/12/04 10:12:25;;;;;;;71.65;34.90;;;;;;;5.53;100.00;99572.47;10543495;28;20490;-74
2021/12/04 10:33:17;;;;;;;71.80;33.33;;;;;;;5.82;100.00;99575.91;10541959;28;20479;-74
2021/12/04 10:38:22;;;;;;;86.50;34.97;;;;;;;5.85;100.00;99555.91;10543243;28;20456;-74
2021/12/04 10:43:28;;;;;;;89.97;39.30;;;;;;;5.69;100.00;99565.94;10542073;28;20089;-74
2021/12/04 10:48:31;;;;;;;58.83;33.08;;;;;;;5.66;100.00;99555.59;10541751;28;20384;-74
2021/12/04 10:53:35;;;;;;;53.97;30.10;;;;;;;5.71;100.00;99554.97;10541739;28;20034;-74
2021/12/04 11:04:00;;;;;;;68.88;36.90;;;;;;;5.65;100.00;99542.34;10540819;28;20500;-75
2021/12/04 11:50:53;;;;;;;112.15;42.92;;;;;;;5.71;100.00;99495.91;10558362;28;20379;-76
2021/12/04 11:55:53;;;;;;;83.22;33.38;;;;;;;5.59;100.00;99487.59;10552127;28;20036;-76
2021/12/04 12:00:58;;;;;;;83.15;32.30;;;;;;;5.62;100.00;99486.38;10539648;28;20055;-77
2021/12/04 12:06:03;;;;;;;68.20;32.15;;;;;;;5.61;100.00;99474.78;10543259;28;20119;-77
2021/12/04 12:11:09;;;;;;;56.55;25.95;;;;;;;5.68;100.00;99464.91;10542723;28;20391;-77
2021/12/04 12:16:14;;;;;;;52.78;24.90;;;;;;;5.72;100.00;99458.09;10540739;28;20036;-76
2021/12/04 12:21:17;;;;;;;43.58;22.77;;;;;;;5.74;100.00;99461.44;10539512;28;20464;-76
2021/12/04 12:26:34;;;;;;;41.90;21.13;;;;;;;5.76;100.00;99451.28;10539670;28;20067;-76
2021/12/04 12:32:01;;;;;;;49.15;24.98;;;;;;;5.91;100.00;99444.94;10540578;28;20039;-77
2021/12/04 12:37:12;;;;;;;;;;;;;;;5.90;100.00;99440.56;10540196;28;20032;-76
2021/12/04 12:42:22;;;;;;;34.47;19.25;;;;;;;5.95;100.00;99443.53;10561723;28;19923;-78
2021/12/04 12:47:22;;;;;;;30.38;16.15;;;;;;;5.94;100.00;99434.66;10547682;28;20423;-78
2021/12/04 12:52:25;;;;;;;25.25;12.80;;;;;;;5.88;100.00;99437.28;10547057;28;20036;-78
2021/12/04 12:57:36;;;;;;;15.27;8.32;;;;;;;5.99;100.00;99442.91;10547115;28;20320;-76
2021/12/04 13:13:35;;;;;;;4.07;2.38;;;;;;;5.84;100.00;99453.00;10545499;28;20118;-75
2021/12/04 13:18:36;;;;;;;1.27;1.17;;;;;;;5.84;100.00;99453.00;10527494;28;20371;-75
2021/12/04 13:23:37;;;;;;;8.13;2.05;;;;;;;5.89;100.00;99453.19;10545796;28;20048;-76
2021/12/04 13:28:40;;;;;;;12.38;3.20;;;;;;;5.89;100.00;99468.50;10545348;28;20032;-75
2021/12/04 13:33:45;;;;;;;4.45;2.10;;;;;;;5.91;100.00;99466.44;10545234;28;20356;-76
2021/12/04 13:38:45;;;;;;;5.43;1.80;;;;;;;5.91;100.00;99467.25;10526634;28;20479;-76
2021/12/04 13:43:53;;;;;;;1.73;1.63;;;;;;;5.94;100.00;99466.88;10545324;28;20049;-75
2021/12/04 13:49:01;;;;;;;5.32;1.60;;;;;;;6.00;100.00;99476.81;10545363;28;20070;-76
2021/12/04 13:54:02;;;;;;;2.25;1.85;;;;;;;6.03;100.00;99476.44;10543332;28;20036;-76
2021/12/04 13:59:04;;;;;;;4.95;2.95;;;;;;;6.02;100.00;99481.97;10543719;28;20101;-76
2021/12/04 14:04:05;;;;;;;5.07;2.10;;;;;;;6.00;100.00;99484.06;10544571;28;20036;-76
2021/12/04 14:09:06;;;;;;;8.65;1.73;;;;;;;6.02;100.00;99492.75;10542771;28;20433;-77
2021/12/04 14:14:23;;;;;;;1.13;1.13;;;;;;;6.01;100.00;99491.91;10528648;28;20032;-76
2021/12/04 14:19:27;;;;;;;2.58;1.75;;;;;;;6.01;100.00;99494.59;10544908;28;20081;-76
2021/12/04 14:24:44;;;;;;;7.85;2.88;;;;;;;6.00;100.00;99505.56;10532065;28;20039;-76
2021/12/04 14:29:47;;;;;;;16.60;3.65;;;;;;;6.03;100.00;99505.97;10544348;28;20032;-76
2021/12/04 14:34:48;;;;;;;5.03;2.72;;;;;;;6.14;100.00;99509.09;10524615;28;20032;-76
2021/12/04 14:39:49;;;;;;;19.65;5.22;;;;;;;6.36;100.00;99512.47;10507928;28;20028;-75
2021/12/04 14:44:51;;;;;;;11.43;2.38;;;;;;;6.72;100.00;99506.69;10540315;28;20108;-75
2021/12/04 14:49:52;;;;;;;9.98;3.67;;;;;;;6.95;100.00;99508.97;10540245;28;20028;-75
2021/12/04 14:54:52;;;;;;;12.65;4.07;;;;;;;6.82;99.81;99509.81;10542053;28;20069;-76
2021/12/04 15:00:10;;;;;;;15.23;5.43;;;;;;;6.67;99.02;99522.66;10540864;28;20052;-76
2021/12/04 15:05:11;;;;;;;3.35;2.63;;;;;;;6.47;97.97;99525.28;10541533;28;20092;-76
2021/12/04 15:10:18;;;;;;;5.30;3.65;;;;;;;6.34;98.07;99538.72;10541893;28;20139;-76
2021/12/04 15:15:20;;;;;;;;;;;;;;;6.20;97.61;99535.19;10540496;28;20031;-76
2021/12/04 15:20:28;;;;;;;8.80;5.07;;;;;;;5.93;96.48;99545.00;10555850;28;20043;-77
2021/12/04 15:25:31;;;;;;;6.72;2.50;;;;;;;5.85;97.52;99550.53;10541660;28;20043;-76
2021/12/04 15:30:32;;;;;;;3.85;2.67;;;;;;;5.71;96.25;99555.84;10506580;28;20059;-76
2021/12/04 15:35:35;;;;;;;15.80;3.22;;;;;;;5.51;96.71;99553.03;10540552;28;20039;-75
2021/12/04 15:46:08;;;;;;;11.05;3.70;;;;;;;5.43;97.83;99565.78;10541433;28;20056;-76
2021/12/04 15:56:35;;;;;;;7.90;3.03;;;;;;;5.57;99.08;99579.09;10544124;28;20040;-76
2021/12/04 16:01:35;;;;;;;13.02;3.47;;;;;;;5.54;97.85;99581.34;10538391;28;20052;-75
2021/12/04 16:06:37;;;;;;;7.53;3.17;;;;;;;5.59;98.71;99597.69;10538190;28;20036;-75
2021/12/04 16:11:39;;;;;;;5.38;1.92;;;;;;;5.60;98.22;99594.81;10539776;28;20082;-76
2021/12/04 16:16:40;;;;;;;6.80;2.03;;;;;;;5.46;96.78;99603.00;10547275;28;20517;-75
2021/12/04 16:21:41;;;;;;;16.75;3.65;;;;;;;5.57;98.58;99614.00;10546719;28;20036;-75
2021/12/04 16:26:41;;;;;;;3.38;2.95;;;;;;;5.79;99.87;99624.66;10547273;28;20043;-75
2021/12/04 16:37:07;;;;;;;14.35;3.40;;;;;;;5.91;98.88;99615.03;10547563;28;20040;-75
2021/12/04 16:42:09;;;;;;;10.55;3.53;;;;;;;5.92;99.75;99624.75;10546482;28;20455;-75
2021/12/04 16:47:09;;;;;;;2.88;2.67;;;;;;;6.14;100.00;99632.75;10547349;28;20477;-75
2021/12/04 16:57:50;;;;;;;14.30;4.03;;;;;;;6.01;99.93;99628.13;10560229;28;20031;-77
2021/12/04 17:02:50;;;;;;;8.38;1.77;;;;;;;5.98;99.75;99644.66;10550168;28;20052;-75
2021/12/04 17:07:51;;;;;;;10.25;2.15;;;;;;;5.90;99.74;99642.91;10545100;28;20032;-76
2021/12/04 17:12:51;;;;;;;20.88;4.40;;;;;;;5.83;98.88;99645.56;10545786;28;20032;-76
2021/12/04 17:17:51;;;;;;;5.72;3.30;;;;;;;5.79;98.32;99647.00;10546284;28;20028;-76
2021/12/04 17:22:52;;;;;;;17.45;3.03;;;;;;;5.72;98.06;99650.66;10545659;28;20040;-75
2021/12/04 17:27:53;;;;;;;3.47;2.33;;;;;;;5.81;99.02;99654.88;10544286;28;20036;-76
2021/12/04 17:32:53;;;;;;;12.77;3.00;;;;;;;5.77;98.38;99654.41;10544113;28;20093;-76
2021/12/04 17:37:54;;;;;;;7.10;3.47;;;;;;;5.67;97.90;99647.72;10543801;28;20032;-76
2021/12/04 17:42:54;;;;;;;9.25;3.17;;;;;;;5.52;97.24;99654.03;10543644;28;20054;-75
2021/12/04 17:47:56;;;;;;;7.55;3.55;;;;;;;5.60;97.91;99663.81;10527153;28;20111;-76
2021/12/04 17:52:58;;;;;;;7.93;2.35;;;;;;;5.67;98.22;99656.63;10545102;28;20190;-76
2021/12/04 17:57:59;;;;;;;12.27;2.75;;;;;;;5.76;98.37;99654.63;10543822;28;20031;-75
2021/12/04 18:03:00;;;;;;;7.75;3.15;;;;;;;5.70;98.04;99656.22;10543574;28;20035;-75
2021/12/04 18:08:00;;;;;;;19.83;4.00;;;;;;;5.73;98.26;99663.88;10544370;28;20040;-76
2021/12/04 18:13:04;;;;;;;10.98;3.38;;;;;;;5.73;98.90;99663.88;10543651;28;20060;-76
2021/12/04 18:18:05;;;;;;;8.88;3.13;;;;;;;5.80;99.22;99663.94;10544006;28;20036;-75
2021/12/04 18:23:06;;;;;;;14.43;3.45;;;;;;;5.79;99.25;99684.59;10542015;28;20044;-76
2021/12/04 18:28:06;;;;;;;2.85;2.15;;;;;;;5.70;99.24;99669.66;10542978;28;20042;-76
2021/12/04 18:33:07;;;;;;;6.53;3.80;;;;;;;5.55;98.78;99668.91;10543042;28;20063;-76
2021/12/04 18:38:08;;;;;;;21.83;6.60;;;;;;;5.51;98.73;99673.03;10541713;28;20036;-76
2021/12/04 18:43:09;;;;;;;7.68;3.30;;;;;;;5.51;99.53;99681.91;10542556;28;20119;-76
2021/12/04 18:48:09;;;;;;;14.45;3.58;;;;;;;5.58;99.28;99677.44;10542384;28;20032;-76
2021/12/04 18:53:10;;;;;;;7.40;3.20;;;;;;;5.57;98.62;99675.75;10541593;28;20125;-76
2021/12/04 18:58:11;;;;;;;7.65;2.92;;;;;;;5.57;98.88;99677.63;10541716;28;20032;-76
2021/12/04 19:03:11;;;;;;;13.32;5.50;;;;;;;5.69;99.59;99677.91;10542390;28;20036;-76
2021/12/04 19:08:12;;;;;;;9.88;3.75;;;;;;;5.76;99.33;99676.94;10524637;28;20479;-76
2021/12/04 19:13:13;;;;;;;7.00;3.58;;;;;;;5.69;99.10;99672.53;10524202;28;20031;-76
2021/12/04 19:18:15;;;;;;;4.40;3.15;;;;;;;5.73;99.50;99671.94;10544243;28;20028;-76
2021/12/04 19:23:15;;;;;;;11.15;5.30;;;;;;;5.83;98.56;99679.66;10546775;28;20101;-76
2021/12/04 19:28:17;;;;;;;8.13;3.95;;;;;;;5.80;98.07;99670.13;10544299;28;20100;-76
2021/12/04 19:54:44;;;;;;;16.40;5.05;;;;;;;5.27;96.70;99664.38;10540321;28;20036;-76
2021/12/04 19:59:44;;;;;;;5.68;4.03;;;;;;;5.39;97.78;99667.34;10539667;28;20087;-76
2021/12/04 20:15:09;;;;;;;5.00;2.53;;;;;;;5.44;100.00;99683.72;10540020;28;20085;-76
2021/12/04 20:20:11;;;;;;;6.93;2.83;;;;;;;5.41;100.00;99676.03;10538663;28;20111;-75
2021/12/04 20:25:18;;;;;;;8.50;3.90;;;;;;;5.39;100.00;99688.00;10538415;28;20043;-76
2021/12/04 20:30:48;;;;;;;9.85;3.40;;;;;;;5.37;100.00;99693.56;10539145;28;20068;-76
2021/12/04 21:08:13;;;;;;;14.70;3.67;;;;;;;5.44;100.00;99654.19;10546001;28;20032;-76
2021/12/04 21:50:43;;;;;;;12.52;2.60;;;;;;;5.28;99.00;99641.88;10544670;28;20036;-76
2021/12/04 21:55:53;;;;;;;6.85;3.10;;;;;;;5.29;99.60;99638.16;10543979;28;20115;-76
2021/12/04 22:11:59;;;;;;;19.63;5.03;;;;;;;5.56;100.00;99649.13;10544588;28;20036;-76
2021/12/04 22:59:25;;;;;;;8.77;3.55;;;;;;;5.46;99.65;99636.03;10541023;28;20055;-76
2021/12/04 23:15:11;;;;;;;6.38;3.63;;;;;;;5.42;99.30;99633.91;10544221;28;20471;-75
2021/12/04 23:47:05;;;;;;;13.88;5.28;;;;;;;4.89;98.50;99645.88;10540516;28;20040;-76
